Etusivu
METAR-TAF:

METAR-TAF

Lentoasemat :

Luulaja, Ruotsi

Luulajan lentoasema

Leveyspiiri: 65-33N, Pituuspiiri: 022-08E, korkeus merenpinnasta: 17 m

Tämänhetkinen sää

Tämä raportti tehtiin 29 minuuttia sitten, kello 15.20 UTC
Tuuli 11 kn kaakosta
Lämpötila 9°C
Kosteus 93%
Ilmanpaine 1031 hPa
Näkyvyys: 9000 m
Hajonneita pilviä 1200 ft:n korkeudessa
Pilvistä 2200 ft:n korkeudessa
heikkoa sadetta

METAR: ESPA 211520Z 13011KT 9000 -RA BKN012 OVC022 09/08 Q1031

Aika: 17:49 (15:49 UTC)

Sääennuste

Tämä raportti tehtiin 1 tunti ja 19 minuuttia sitten, kello 14.30 UTC
Ennuste voimassa 21. päivästä klo 15 UTC - 21. päivään klo 23 UTC
Tuuli 10 kn kaakosta
Näkyvyys 10 km tai enemmän
Hajonneita pilviä 1500 ft:n korkeudessa
Ajoittain
21. päivästä klo 15 UTC - 21. päivään klo 23 UTC
Hajonneita pilviä 1000 ft:n korkeudessa

TAF: ESPA 211430Z 2115/2123 13010KT 9999 BKN015 TEMPO 2115/2123 BKN010

Säähavainnot ja -ennusteet yli 4000 lentoasemalta (METAR- ja TAF-raportit).

Käytössä olevat sääasemat on merkitty karttaan keltaisilla ja punaisilla pisteillä.

Aseta hiiri pisteen päälle nähdäksesi sääaseman nimen.

Klikkaa sitten nähdäksesi säähavainnot ja -ennusteet.

Kartan vaihtaminen: klikkaa mustalla rastilla varustettuja vihreitä pisteitä, niin voit zoomata sisään; viivalla varustettua vihreää pistettä, niin voit zoomata ulos tai vihreitä nuolia, niin pääset viereisille kartoille.


METAR-TAF: